x

Neah Bay, - 6nm North Of Cape Flattery, Wa (traffic Separation Lighted Buoy) (46087) Wave Buoy

7:20am - Fri 22nd Jun 2018 All times are PDT. -7 hours from GMT.

  • Sig Wave height 2.6ft
  • Swell Direction
  • Peak Period 9s
  • Average Period 6s
  • Wind
    9mph, 9mph gusts
  • Sea Temp 51°f
  • Air Temp 53°f
  • Sea Pressure 1022mb
  • Neah Bay, - 6nm North Of Cape Flattery, Wa     (traffic Separation Lighted Buoy)
  • Neah Bay, - 6nm North Of Cape Flattery, Wa     (traffic Separation Lighted Buoy)

More Historic Weather Station data

Upgrade to MSW Pro to gain access to the past 30 days of data for over 8000 Wavebouys and Weather Stations around the globe.

Join

Comparision Forecast

View Surf forecast
   
Fri 06/22 7:20am 2.5ft 9s 6s 9 9 mph 1022mb 51f 53f
6:50am 2.5ft 9s 7s 9 9 mph 1021.9mb 51f 53f
6:20am 2.5ft 8s 7s 7 7 mph 1021.8mb 51f 53f
5:50am 2.5ft 8s 7s 4 4 mph 1021.7mb 51f 53f
5:20am 2.5ft 9s 7s 2 4 mph 1021.6mb 51f 53f
4:50am 2.5ft 9s 7s 4 4 mph 1021.7mb 51f 53f
4:20am 2.5ft 10s 7s 4 4 mph 1021.8mb 51f 53f
3:50am 2.5ft 9s 7s 7 9 mph 1021.7mb 52f 54f
3:20am 2.5ft 13s 7s 7 9 mph 1021.7mb 51f 54f
2:50am 2.5ft 9s 7s 7 9 mph 1021.8mb 52f 54f
2:20am 3ft 8s 7s 9 11 mph 1021.9mb 52f 54f
1:50am 2.5ft 9s 7s 4 9 mph 1021.9mb 52f 54f
1:20am 2.5ft 9s 7s 9 11 mph 1021.9mb 52f 54f
12:50am 2.5ft 9s 7s 11 13 mph 1021.9mb 52f 54f
12:20am 2.5ft 9s 7s 9 9 mph 1021.8mb 52f 54f
Thu 06/21 11:50pm 2.5ft 9s 7s 7 7 mph 1021.6mb 52f 54f
11:20pm 2.5ft 9s 7s 4 7 mph 1021.6mb 52f 54f
10:50pm 2.5ft 9s 7s 4 7 mph 1021.6mb 52f 54f
10:20pm 2.5ft 8s 7s 7 7 mph 1021.6mb 52f 53f
9:50pm 2.5ft 8s 7s 7 9 mph 1021.6mb 52f 53f
9:20pm 3ft 9s 7s 7 9 mph 1021.5mb 52f 54f
8:50pm 2.5ft 8s 6s 7 7 mph 1021.3mb 52f 54f
8:20pm 3ft 9s 7s 7 7 mph 1021.3mb 53f 54f
7:50pm 3ft 9s 6s 7 7 mph 1021.3mb 53f 54f
7:20pm 3ft 9s 7s 7 9 mph 1021.5mb 53f 54f
6:50pm 3ft 9s 7s 7 9 mph 1021.4mb 53f 54f
6:20pm 3ft 8s 7s 7 7 mph 1021.4mb 53f 54f
5:50pm 3.5ft 9s 7s 7 7 mph 1021.6mb 53f 53f
5:20pm 3ft 9s 7s 4 4 mph 1021.5mb 53f 54f
4:50pm 3.5ft 9s 7s 4 4 mph 1021.8mb 53f 54f
4:20pm 3ft 9s 7s 4 7 mph 1022.1mb 53f 54f
3:50pm 3.5ft 10s 8s 4 4 mph 1022.1mb 53f 54f
3:20pm 3ft 10s 7s 4 4 mph 1022.2mb 53f 54f
2:50pm 3ft 10s 7s 4 7 mph 1022.3mb 53f 54f
2:20pm 3ft 10s 7s 7 9 mph 1022.4mb 53f 54f
1:50pm 3.5ft 10s 7s 7 9 mph 1022.2mb 53f 54f
1:20pm 3.5ft 11s 7s 7 7 mph 1022.1mb 53f 54f
12:50pm 3.5ft 10s 7s 7 7 mph 1021.8mb 53f 54f
12:20pm 3.5ft 9s 7s 4 7 mph 1021.6mb 52f 54f
11:50am 3.5ft 10s 7s 4 4 mph 1021.5mb 52f 53f
11:20am 3.5ft 10s 7s 4 4 mph 1021.1mb 52f 53f
10:50am 3.5ft 9s 7s 7 7 mph 1020.7mb 52f 54f
10:20am 3ft 10s 6s 4 4 mph 1020.5mb 52f 54f
9:50am 3.5ft 10s 6s 4 7 mph 1020.4mb 52f 53f
9:20am 3.5ft 9s 6s 7 7 mph 1020.3mb 52f 53f
8:50am 3.5ft 8s 7s 7 7 mph 1020.2mb 52f 53f
8:20am 3.5ft 10s 7s 7 9 mph 1020.1mb 52f 53f
7:50am 3.5ft 11s 7s 7 9 mph 1019.8mb 52f 53f
7:20am 3.5ft 9s 6s 9 11 mph 1019.5mb 52f 53f
6:50am 3.5ft 9s 6s 7 9 mph 1019.3mb 52f 53f
6:20am 4.5ft 10s 7s 7 9 mph 1019.2mb 52f 53f
5:50am 4.5ft 11s 7s 7 7 mph 1019.1mb 52f 52f
5:20am 4.5ft 9s 7s 7 9 mph 1018.8mb 52f 53f
4:50am 4ft 10s 7s 9 11 mph 1018.5mb 52f 52f
4:20am 4ft 10s 7s 7 9 mph 1018.4mb 52f 53f
3:50am 4ft 9s 7s 9 11 mph 1018.4mb 52f 53f
3:20am 4.5ft 10s 8s 9 9 mph 1018.2mb 53f 53f
2:50am 4ft 10s 7s 7 9 mph 1018mb 53f 53f
2:20am 4ft 10s 7s 7 7 mph 1017.9mb 53f 53f
1:50am 4ft 11s 7s 7 7 mph 1017.7mb 53f 53f
1:20am 4ft 11s 7s 4 7 mph 1017.6mb 53f 53f
12:50am 4ft 10s 7s 4 7 mph 1017.5mb 53f 53f
12:20am 4ft 11s 7s 7 9 mph 1017.1mb 53f 53f
Wed 06/20 11:50pm 4ft 10s 7s 7 9 mph 1016.9mb 53f 53f
11:20pm 3.5ft 11s 7s 7 7 mph 1016.7mb 53f 53f
10:50pm 3.5ft 10s 7s 7 9 mph 1016.6mb 53f 53f
10:20pm 3.5ft 10s 7s 9 11 mph 1016.3mb 53f 53f
9:50pm 4ft 10s 7s 11 13 mph 1015.9mb 53f 53f
9:20pm 3.5ft 11s 7s 11 13 mph 1015.5mb 53f 53f
8:50pm 3.5ft 11s 7s 11 13 mph 1015.3mb 53f 53f
8:20pm 3.5ft 11s 7s 11 16 mph 1015.2mb 53f 53f
7:50pm 3.5ft 11s 7s 9 11 mph 1015.1mb 53f 53f
7:20pm 3.5ft 11s  -  11 13 mph 1014.9mb 53f 53f
6:50pm 4.5ft 11s 8s 11 13 mph 1014.6mb 52f 53f
6:20pm 4.5ft 11s 8s 9 11 mph 1014.7mb 52f 53f
5:50pm 4.5ft 11s 8s 9 9 mph 1014.8mb 52f 53f
5:20pm 4.5ft 11s 8s 11 13 mph 1015.1mb 52f 53f
4:50pm 4.5ft 11s 8s 11 13 mph 1015.1mb 52f 53f
4:20pm 4.5ft 11s 9s 9 11 mph 1015.1mb 53f 53f
3:50pm 4.5ft 11s 9s 9 11 mph 1015.4mb 53f 53f
3:20pm 4.5ft 11s 9s 9 11 mph 1015.5mb 54f 54f
2:50pm 4.5ft 11s 9s 7 9 mph 1015.7mb 53f 54f
2:20pm 4.5ft 10s 9s 9 11 mph 1015.9mb 53f 54f
1:50pm 4ft 11s 9s 7 9 mph 1015.9mb 53f 53f
1:20pm 5ft 11s 9s 7 9 mph 1015.9mb 53f 53f
12:20pm 5ft 11s 9s 7 9 mph 1016mb 53f 54f
11:50am 5ft 12s 9s 4 7 mph 1016.1mb 53f 53f
11:20am 4.5ft 10s 9s 4 7 mph 1016mb 53f 53f
10:50am 4.5ft 11s 8s 4 4 mph 1016.2mb 52f 53f
10:20am 5ft 11s 9s 4 7 mph 1016.2mb 52f 53f
9:50am 4.5ft 11s 8s 2 4 mph 1016.4mb 52f 53f
9:20am 4.5ft 10s 8s 4 4 mph 1016.2mb 52f 53f
8:50am 4.5ft 11s 8s 4 4 mph 1016.2mb 52f 53f
8:20am 5ft 12s 8s 2 4 mph 1016.2mb 52f 53f
7:50am 4.5ft 12s 8s 4 7 mph 1015.8mb 52f 53f
7:20am 4.5ft 12s 8s 4 4 mph 1015.7mb 52f 53f
6:50am 4.5ft 12s 8s 4 7 mph 1015.6mb 52f 53f
6:20am 4.5ft 12s 8s 2 4 mph 1015.7mb 52f 52f
5:50am 4.5ft 12s 8s 4 7 mph 1015.6mb 52f 52f
5:20am 4.5ft 11s 8s 4 7 mph 1015.8mb 51f 52f
4:50am 4.5ft 12s 9s 4 7 mph 1015.7mb 51f 52f
4:20am 4.5ft 11s 8s 7 7 mph 1016mb 51f 52f
3:50am 4.5ft 11s 9s 4 4 mph 1016.2mb 51f 52f
3:20am 4.5ft 11s 9s 4 7 mph 1016.2mb 51f 52f
2:50am 5ft 11s 9s 4 7 mph 1016.4mb 51f 52f
2:20am 4.5ft 11s 9s 7 9 mph 1016.6mb 51f 52f
1:50am 4.5ft 11s 9s 7 7 mph 1016.8mb 51f 52f
1:20am 5ft 11s 9s 7 7 mph 1016.7mb 51f 53f
12:50am 4.5ft 11s 9s 7 9 mph 1016.9mb 51f 53f
12:20am 4.5ft 11s 9s 7 9 mph 1017mb 51f 53f
Tue 06/19 11:50pm 4.5ft 10s 9s 7 9 mph 1017.2mb 51f 53f
11:20pm 5ft 11s 9s 7 9 mph 1017.1mb 51f 53f
10:50pm 4.5ft 11s 9s 4 7 mph 1017.2mb 51f 53f
10:20pm 4.5ft 10s 8s 4 7 mph 1017.3mb 51f 54f
9:50pm 4.5ft 10s 8s 4 7 mph 1017.3mb 51f 53f
9:20pm 4.5ft 11s 8s 4 7 mph 1017.2mb 51f 53f
8:50pm 4.5ft 11s 8s 7 9 mph 1017.3mb 52f 54f
8:20pm 4.5ft 11s 8s 7 9 mph 1017.4mb 52f 54f
7:50pm 4.5ft 11s 8s 9 11 mph 1017.5mb 52f 54f
7:20pm 4.5ft 11s 8s 7 7 mph 1017.5mb 52f 54f
6:50pm 5ft 11s 8s 7 9 mph 1017.6mb 52f 54f
6:20pm 4.5ft 10s 7s 7 9 mph 1017.7mb 52f 53f
5:50pm 4.5ft 11s 8s 9 9 mph 1017.8mb 52f 54f
5:20pm 4.5ft 15s 7s 7 7 mph 1017.9mb 52f 53f
4:50pm 4.5ft 11s 8s 7 7 mph 1018.1mb 52f 54f
4:20pm 4.5ft 10s 8s 7 7 mph 1018.3mb 52f 54f
3:50pm 5ft 10s 8s 4 7 mph 1018.7mb 52f 54f
3:20pm 4.5ft 11s 8s 4 7 mph 1018.8mb 52f 54f
2:50pm 4.5ft 11s 8s 7 9 mph 1019.2mb 52f 54f
2:20pm 4.5ft 11s 8s 9 11 mph 1019.3mb 52f 55f
1:50pm 4.5ft 11s 8s 7 7 mph 1019.3mb 52f 54f
1:20pm 4.5ft 11s 8s 4 7 mph 1019.4mb 52f 54f
12:50pm 4.5ft 11s 8s 4 4 mph 1019.4mb 52f 55f
12:20pm 4.5ft 11s 8s 2 7 mph 1019.4mb 51f 54f
11:50am 4.5ft 11s 8s 7 9 mph 1019.2mb 51f 54f
11:20am 5ft 11s 8s 7 9 mph 1019.1mb 51f 54f
10:50am 4.5ft 11s 8s 7 7 mph 1018.9mb 51f 53f
10:20am 5ft 11s 8s 7 7 mph 1018.8mb 51f 53f
9:50am 5.5ft 11s 9s 4 7 mph 1018.9mb 51f 54f
9:20am 5ft 11s 8s 4 4 mph 1018.9mb 51f 54f
8:50am 5ft 11s 8s 2 4 mph 1018.7mb 51f 54f
8:20am 4.5ft 11s 8s 4 7 mph 1018.6mb 52f 54f
7:50am 5ft 11s 8s 4 7 mph 1018.6mb 52f 53f
7:20am 5ft 11s 8s 4 7 mph 1018.4mb 52f 54f
6:50am 5.5ft 11s 8s 4 7 mph 1018.4mb 52f 54f
6:20am 5ft 11s 8s 4 7 mph 1018.3mb 52f 54f
5:50am 5.5ft 11s 8s 4 7 mph 1018.1mb 53f 55f
5:20am 5.5ft 11s 8s 4 7 mph 1018.2mb 53f 55f
4:50am 5.5ft 8s 8s 4 7 mph 1018.3mb 53f 55f
4:20am 5ft 11s 8s 7 9 mph 1018.2mb 53f 55f
3:50am 5ft 8s 8s 7 9 mph 1018.1mb 53f 55f
3:20am 5.5ft 10s 8s 7 9 mph 1018.2mb 53f 55f
2:50am 6ft 11s 8s 4 7 mph 1018.2mb 53f 56f
2:20am 6ft 12s 9s 4 9 mph 1018.1mb 53f 56f
1:50am 7ft 12s 9s 7 9 mph 1018.2mb 53f 56f
1:20am 5.5ft 12s 8s 9 11 mph 1018.2mb 53f 56f
12:50am 5.5ft 12s 9s 11 13 mph 1018mb 53f 56f
12:20am 6.5ft 12s 9s 13 16 mph 1017.7mb 54f 56f
Mon 06/18 11:50pm 6.5ft 11s 9s 13 18 mph 1017.6mb 54f 56f
11:20pm 6ft 12s 8s 13 16 mph 1017.3mb 54f 56f
10:50pm 6ft 12s 8s 16 18 mph 1017.1mb 55f 57f
10:20pm 5.5ft 11s 8s 13 18 mph 1017.2mb 55f 57f
9:50pm 5.5ft 12s 9s 13 18 mph 1016.9mb 55f 57f
9:20pm 5ft 12s 8s 11 16 mph 1016.7mb 55f 57f
8:50pm 6ft 12s 8s 11 16 mph 1016.4mb 55f 57f
8:20pm 6ft 12s 8s 11 16 mph 1016.3mb 55f 57f
7:50pm 6.5ft 12s 9s 13 16 mph 1016.2mb 54f 56f
7:20pm 6ft 12s 8s 11 16 mph 1016.2mb 54f 56f
6:50pm 6.5ft 12s 8s 13 16 mph 1016.1mb 55f 56f
6:20pm 6ft 11s 8s 13 20 mph 1015.9mb 55f 56f
5:50pm 6.5ft 13s 7s 16 18 mph 1015.7mb 55f 56f
5:20pm 7ft 12s 7s 16 18 mph 1015.4mb 55f 55f
4:50pm 6.5ft 12s 8s 13 18 mph 1015.3mb 55f 55f
4:20pm 7.5ft 12s 8s 13 18 mph 1015.3mb 55f 55f
3:50pm 7ft 12s 8s 13 16 mph 1015.1mb 55f 55f
3:20pm 7ft 13s 8s 11 13 mph 1015.2mb 55f 55f